Terminal Aerodrome Forecast
Issued by NWS

Home | Current Version | Previous Version | Text Only | Print | Product List | Glossary On
Versions: 1 2 3 4 5 6 7 8 9 10 11 12 13
000
FTUS41 KBTV 251731
TAFMSS
TAF
KMSS 251731Z 2518/2618 22011G17KT P6SM SCT015 BKN045
      TEMPO 2518/2520 BKN015
     FM260000 22006KT P6SM SCT025 BKN040
     FM260500 23004KT 6SM BR BKN060
     FM261200 25007KT P6SM SCT060=

USA.gov is the U.S. government's official web portal to all federal, state and local government web resources and services.